createdAt,value
2019-01-06T00:02:02.762Z,0.70
2019-01-06T00:04:44.939Z,0.70
2019-01-06T00:07:20.517Z,0.80
2019-01-06T00:09:59.407Z,0.80
2019-01-06T00:12:47.611Z,0.70
2019-01-06T00:15:29.494Z,0.70
2019-01-06T00:18:15.592Z,0.70
2019-01-06T00:21:01.665Z,0.80
2019-01-06T00:23:34.704Z,0.70
2019-01-06T00:26:10.492Z,0.80
2019-01-06T00:28:40.554Z,0.70
2019-01-06T00:31:16.766Z,0.80
2019-01-06T00:33:58.887Z,0.80
2019-01-06T00:36:44.776Z,0.80
2019-01-06T00:39:20.709Z,0.80
2019-01-06T00:42:06.902Z,0.80
2019-01-06T00:44:52.980Z,0.80
2019-01-06T00:47:28.840Z,0.70
2019-01-06T00:50:07.387Z,0.70
2019-01-06T00:52:37.452Z,0.70
2019-01-06T00:55:16.259Z,0.70
2019-01-06T00:57:58.161Z,0.70
2019-01-06T01:00:28.242Z,0.70
2019-01-06T01:03:10.352Z,0.70
2019-01-06T01:05:56.240Z,0.70
2019-01-06T01:08:26.296Z,0.70
2019-01-06T01:10:56.350Z,0.70
2019-01-06T01:13:38.448Z,0.70
2019-01-06T01:16:11.216Z,0.70
2019-01-06T01:18:56.106Z,0.70
2019-01-06T01:21:42.082Z,0.70
2019-01-06T01:24:20.935Z,0.70
2019-01-06T01:26:53.947Z,0.80
2019-01-06T01:29:26.711Z,0.70
2019-01-06T01:32:08.859Z,0.70
2019-01-06T01:34:53.668Z,0.70
2019-01-06T01:37:23.753Z,0.70
2019-01-06T01:39:59.587Z,0.70
2019-01-06T01:42:35.664Z,0.70
2019-01-06T01:45:18.129Z,0.70
2019-01-06T01:47:51.053Z,0.70
2019-01-06T01:50:35.647Z,0.70
2019-01-06T01:53:14.942Z,0.80
2019-01-06T01:55:44.984Z,0.80
2019-01-06T01:58:15.089Z,0.80
2019-01-06T02:00:51.252Z,0.80
2019-01-06T02:03:27.242Z,0.80
2019-01-06T02:06:13.579Z,0.80
2019-01-06T02:08:58.496Z,0.80
2019-01-06T02:11:34.310Z,0.80
2019-01-06T02:14:16.358Z,0.80
2019-01-06T02:16:49.360Z,0.80
2019-01-06T02:19:25.372Z,0.90
2019-01-06T02:21:55.428Z,0.90
2019-01-06T02:24:25.481Z,0.90
2019-01-06T02:27:13.645Z,0.80
2019-01-06T02:29:55.580Z,0.90
2019-01-06T02:32:28.212Z,0.90
2019-01-06T02:35:06.711Z,0.90
2019-01-06T02:37:42.475Z,0.90
2019-01-06T02:40:12.592Z,0.90
2019-01-06T02:42:45.603Z,0.90
2019-01-06T02:45:17.188Z,0.90
2019-01-06T02:48:02.985Z,0.90
2019-01-06T02:50:35.996Z,0.90
2019-01-06T02:53:08.736Z,0.90
2019-01-06T02:55:54.879Z,0.90
2019-01-06T02:58:27.625Z,0.90
2019-01-06T03:01:12.506Z,0.90
2019-01-06T03:03:48.102Z,0.90
2019-01-06T03:06:29.723Z,0.90
2019-01-06T03:09:02.454Z,0.90
2019-01-06T03:11:32.508Z,0.90
2019-01-06T03:14:05.328Z,0.90
2019-01-06T03:16:51.371Z,0.90
2019-01-06T03:19:21.425Z,0.90
2019-01-06T03:22:07.704Z,0.90
2019-01-06T03:24:54.029Z,1.00
2019-01-06T03:27:26.777Z,1.00
2019-01-06T03:29:56.828Z,1.00
2019-01-06T03:32:29.533Z,1.00
2019-01-06T03:35:15.682Z,1.00
2019-01-06T03:37:48.434Z,1.00
2019-01-06T03:40:34.796Z,1.00
2019-01-06T03:43:07.883Z,0.90
2019-01-06T03:45:54.025Z,0.90
2019-01-06T03:48:24.073Z,0.90
2019-01-06T03:51:10.204Z,0.90
2019-01-06T03:53:43.029Z,0.90
2019-01-06T03:56:13.076Z,0.90
2019-01-06T03:59:00.851Z,0.90
2019-01-06T04:01:36.919Z,0.90
2019-01-06T04:04:22.717Z,0.90
2019-01-06T04:06:55.732Z,0.90
2019-01-06T04:09:25.795Z,0.90
2019-01-06T04:12:11.809Z,0.90
2019-01-06T04:14:57.876Z,0.90
2019-01-06T04:17:42.708Z,0.90
2019-01-06T04:20:15.324Z,0.90
2019-01-06T04:23:01.460Z,0.90
2019-01-06T04:25:50.852Z,0.80
2019-01-06T04:28:35.560Z,0.80
2019-01-06T04:31:05.607Z,0.90
2019-01-06T04:33:53.904Z,0.80
2019-01-06T04:36:23.941Z,0.90
2019-01-06T04:39:10.090Z,0.90
2019-01-06T04:41:40.130Z,0.90
2019-01-06T04:44:16.136Z,0.90
2019-01-06T04:46:51.901Z,0.90
2019-01-06T04:49:37.997Z,0.90
2019-01-06T04:52:17.031Z,0.90
2019-01-06T04:55:04.949Z,0.90
2019-01-06T04:57:51.031Z,0.90
2019-01-06T05:00:21.092Z,0.90
2019-01-06T05:02:51.124Z,0.90
2019-01-06T05:05:39.073Z,0.90
2019-01-06T05:08:23.791Z,0.90
2019-01-06T05:11:10.158Z,0.90
2019-01-06T05:13:40.201Z,0.90
2019-01-06T05:16:26.354Z,0.90
2019-01-06T05:19:02.093Z,0.90
2019-01-06T05:21:48.464Z,0.90
2019-01-06T05:24:34.772Z,0.90
2019-01-06T05:27:07.242Z,0.90
2019-01-06T05:29:43.068Z,0.90
2019-01-06T05:32:21.675Z,0.90
2019-01-06T05:34:54.386Z,0.90
2019-01-06T05:37:27.209Z,0.90
2019-01-06T05:39:57.257Z,0.90
2019-01-06T05:42:43.532Z,0.90
2019-01-06T05:45:13.588Z,0.90
2019-01-06T05:47:49.337Z,0.90
2019-01-06T05:50:28.222Z,1.00
2019-01-06T05:53:14.315Z,1.00
2019-01-06T05:55:44.369Z,1.00
2019-01-06T05:58:14.412Z,1.00
2019-01-06T06:00:44.463Z,1.00
2019-01-06T06:03:20.238Z,1.00
2019-01-06T06:05:53.239Z,1.00
2019-01-06T06:08:39.357Z,1.00
2019-01-06T06:11:09.408Z,1.00
2019-01-06T06:13:39.457Z,1.00
2019-01-06T06:16:09.512Z,1.00
2019-01-06T06:18:41.951Z,1.00
2019-01-06T06:21:14.652Z,1.00
2019-01-06T06:24:01.088Z,1.00
2019-01-06T06:26:47.431Z,1.00
2019-01-06T06:29:33.708Z,1.00
2019-01-06T06:32:06.856Z,1.00
2019-01-06T06:34:36.897Z,1.10
2019-01-06T06:37:06.948Z,1.10
2019-01-06T06:39:52.076Z,1.10
2019-01-06T06:42:22.183Z,1.10
2019-01-06T06:44:52.226Z,1.10
2019-01-06T06:47:34.073Z,1.10
2019-01-06T06:50:15.842Z,1.10
2019-01-06T06:52:57.484Z,1.10
2019-01-06T06:55:43.329Z,1.10
2019-01-06T06:58:16.317Z,1.00
2019-01-06T07:01:06.996Z,1.00
2019-01-06T07:03:58.217Z,1.10
2019-01-06T07:06:28.320Z,1.10
2019-01-06T07:08:58.371Z,1.10
2019-01-06T07:11:28.445Z,1.10
2019-01-06T07:13:58.492Z,1.10
2019-01-06T07:17:10.312Z,1.10
2019-01-06T07:19:46.410Z,1.10
2019-01-06T07:22:16.455Z,1.10
2019-01-06T07:24:55.399Z,1.10
2019-01-06T07:27:25.444Z,1.10
2019-01-06T07:29:55.508Z,1.10
2019-01-06T07:32:41.588Z,1.10
2019-01-06T07:35:20.335Z,1.10
2019-01-06T07:37:53.107Z,1.10
2019-01-06T07:40:34.881Z,1.10
2019-01-06T07:43:10.917Z,1.10
2019-01-06T07:45:49.677Z,1.10
2019-01-06T07:48:37.350Z,1.20
2019-01-06T07:51:24.963Z,1.20
2019-01-06T07:54:10.015Z,1.10
2019-01-06T07:56:56.319Z,1.20
2019-01-06T07:59:35.052Z,1.20
2019-01-06T08:02:20.836Z,1.20
2019-01-06T08:05:07.145Z,1.30
2019-01-06T08:07:46.228Z,1.30
2019-01-06T08:10:16.290Z,1.30
2019-01-06T08:12:46.338Z,1.30
2019-01-06T08:15:25.365Z,1.40
2019-01-06T08:17:57.929Z,1.40
2019-01-06T08:20:27.984Z,1.40
2019-01-06T08:23:13.858Z,1.40
2019-01-06T08:26:01.954Z,1.40
2019-01-06T08:28:47.089Z,1.30
2019-01-06T08:31:35.276Z,1.30
2019-01-06T08:34:05.326Z,1.30
2019-01-06T08:36:40.965Z,1.30
2019-01-06T08:39:26.744Z,1.40
2019-01-06T08:42:12.869Z,1.40
2019-01-06T08:44:59.185Z,1.30
2019-01-06T08:47:38.336Z,1.40
2019-01-06T08:50:25.001Z,1.40
2019-01-06T08:52:55.072Z,1.30
2019-01-06T08:55:30.860Z,1.30
2019-01-06T08:58:06.636Z,1.40
2019-01-06T09:00:52.484Z,1.40
2019-01-06T09:03:31.472Z,1.50
2019-01-06T09:06:07.264Z,1.40
2019-01-06T09:08:37.318Z,1.40
2019-01-06T09:11:10.033Z,1.40
2019-01-06T09:13:46.064Z,1.40
2019-01-06T09:16:33.961Z,1.40
2019-01-06T09:19:04.013Z,1.50
2019-01-06T09:21:40.013Z,1.50
2019-01-06T09:24:10.141Z,1.50
2019-01-06T09:26:48.913Z,1.50
2019-01-06T09:29:21.686Z,1.50
2019-01-06T09:32:03.830Z,1.50
2019-01-06T09:34:45.988Z,1.50
2019-01-06T09:37:21.523Z,1.50
2019-01-06T09:40:06.010Z,1.60
2019-01-06T09:42:39.046Z,1.60
2019-01-06T09:45:18.057Z,1.50
2019-01-06T09:47:50.830Z,1.60
2019-01-06T09:50:36.620Z,1.60
2019-01-06T09:53:22.700Z,1.60
2019-01-06T09:55:52.758Z,1.60
2019-01-06T09:58:25.653Z,1.60
2019-01-06T10:01:11.829Z,1.60
2019-01-06T10:03:47.869Z,1.60
2019-01-06T10:06:17.920Z,1.70
2019-01-06T10:08:47.962Z,1.70
2019-01-06T10:11:20.715Z,1.70
2019-01-06T10:14:07.008Z,1.70
2019-01-06T10:16:55.220Z,1.80
2019-01-06T10:19:41.548Z,1.80
2019-01-06T10:22:23.693Z,1.90
2019-01-06T10:24:56.430Z,1.90
2019-01-06T10:27:33.317Z,1.90
2019-01-06T10:30:13.357Z,1.80
2019-01-06T10:32:46.253Z,1.80
2019-01-06T10:35:32.643Z,1.90
2019-01-06T10:38:05.419Z,1.90
2019-01-06T10:40:38.200Z,1.90
2019-01-06T10:43:20.231Z,2.00
2019-01-06T10:46:02.123Z,1.90
2019-01-06T10:48:37.927Z,1.90
2019-01-06T10:51:07.987Z,1.90
2019-01-06T10:53:54.016Z,2.00
2019-01-06T10:56:40.120Z,1.90
2019-01-06T10:59:26.169Z,1.80
2019-01-06T11:02:12.316Z,1.90
2019-01-06T11:04:58.506Z,1.90
2019-01-06T11:07:28.687Z,1.90
2019-01-06T11:10:10.479Z,2.00
2019-01-06T11:12:46.221Z,2.00
2019-01-06T11:15:32.502Z,2.00
2019-01-06T11:18:08.323Z,2.00
2019-01-06T11:20:54.464Z,1.90
2019-01-06T11:23:24.512Z,1.90
2019-01-06T11:25:57.345Z,1.90
2019-01-06T11:28:43.253Z,1.90
2019-01-06T11:31:28.365Z,1.90
2019-01-06T11:34:14.530Z,1.90
2019-01-06T11:36:56.396Z,1.90
2019-01-06T11:39:32.395Z,1.90
2019-01-06T11:42:02.810Z,1.90
2019-01-06T11:44:35.977Z,1.90
2019-01-06T11:47:18.179Z,1.90
2019-01-06T11:49:48.235Z,1.90
2019-01-06T11:52:29.915Z,2.00
2019-01-06T11:55:14.484Z,2.00
2019-01-06T11:58:00.783Z,2.00
2019-01-06T12:00:45.583Z,2.00
2019-01-06T12:03:15.634Z,1.90
2019-01-06T12:05:54.440Z,1.90
2019-01-06T12:08:24.505Z,1.90
2019-01-06T12:11:00.296Z,1.90
2019-01-06T12:13:33.294Z,1.90
2019-01-06T12:16:17.878Z,1.90
2019-01-06T12:18:50.836Z,1.80
2019-01-06T12:21:20.896Z,1.80
2019-01-06T12:24:06.969Z,1.90
2019-01-06T12:26:46.072Z,1.90
2019-01-06T12:29:21.994Z,1.90
2019-01-06T12:31:52.047Z,1.90
2019-01-06T12:34:36.660Z,2.00
2019-01-06T12:37:12.739Z,2.00
2019-01-06T12:39:58.856Z,1.90
2019-01-06T12:42:44.819Z,1.90
2019-01-06T12:45:29.928Z,1.90
2019-01-06T12:48:12.048Z,1.90
2019-01-06T12:50:42.098Z,1.90
2019-01-06T12:53:17.857Z,1.70
2019-01-06T12:55:47.904Z,1.70
2019-01-06T12:58:20.615Z,1.70
2019-01-06T13:00:59.243Z,1.70
2019-01-06T13:03:29.296Z,1.60
2019-01-06T13:05:59.335Z,1.60
2019-01-06T13:08:41.145Z,1.60
2019-01-06T13:11:28.755Z,1.60
2019-01-06T13:14:14.928Z,1.60
2019-01-06T13:16:50.704Z,1.60
2019-01-06T13:19:35.633Z,1.50
2019-01-06T13:22:11.613Z,1.50
2019-01-06T13:24:44.321Z,1.50
2019-01-06T13:27:19.827Z,1.50
2019-01-06T13:29:52.785Z,1.50
2019-01-06T13:32:25.631Z,1.50
2019-01-06T13:34:55.675Z,1.50
2019-01-06T13:37:41.961Z,1.50
2019-01-06T13:40:28.336Z,1.50
2019-01-06T13:43:01.335Z,1.50
2019-01-06T13:45:40.451Z,1.50
2019-01-06T13:48:28.140Z,1.50
2019-01-06T13:51:01.152Z,1.40
2019-01-06T13:53:42.646Z,1.40
2019-01-06T13:56:15.444Z,1.30
2019-01-06T13:58:54.013Z,1.30
2019-01-06T14:01:36.112Z,1.30
2019-01-06T14:04:15.399Z,1.30
2019-01-06T14:06:57.119Z,1.30
2019-01-06T14:09:43.403Z,1.30
2019-01-06T14:12:16.259Z,1.30
2019-01-06T14:14:46.316Z,1.40
2019-01-06T14:17:21.868Z,1.40
2019-01-06T14:19:51.928Z,1.40
2019-01-06T14:22:25.004Z,1.50
2019-01-06T14:24:55.052Z,1.50
2019-01-06T14:27:42.955Z,1.50
2019-01-06T14:30:30.720Z,1.50
2019-01-06T14:33:03.542Z,1.50
2019-01-06T14:35:36.357Z,1.60
2019-01-06T14:38:12.091Z,1.60
2019-01-06T14:40:45.107Z,1.50
2019-01-06T14:43:15.164Z,1.60
2019-01-06T14:46:01.231Z,1.60
2019-01-06T14:48:40.035Z,1.60
2019-01-06T14:51:18.967Z,1.60
2019-01-06T14:53:51.964Z,1.60
2019-01-06T14:56:37.824Z,1.60
2019-01-06T14:59:07.906Z,1.60
2019-01-06T15:01:40.923Z,1.60
2019-01-06T15:04:29.050Z,1.60
2019-01-06T15:07:15.167Z,1.60
2019-01-06T15:09:53.796Z,1.70
2019-01-06T15:12:26.597Z,1.60
2019-01-06T15:14:59.111Z,1.60
2019-01-06T15:17:32.070Z,1.70
2019-01-06T15:20:17.227Z,1.60
2019-01-06T15:22:49.996Z,1.60
2019-01-06T15:25:25.866Z,1.70
2019-01-06T15:28:11.909Z,1.60
2019-01-06T15:30:42.036Z,1.60
2019-01-06T15:33:28.379Z,1.60
2019-01-06T15:36:01.371Z,1.60
2019-01-06T15:38:31.421Z,1.70
2019-01-06T15:41:06.972Z,1.60
2019-01-06T15:43:42.763Z,1.70
2019-01-06T15:46:12.811Z,1.70
2019-01-06T15:48:42.848Z,1.60
2019-01-06T15:51:31.151Z,1.60
2019-01-06T15:54:16.073Z,1.60
2019-01-06T15:56:46.123Z,1.70
2019-01-06T15:59:22.006Z,1.70
2019-01-06T16:02:08.128Z,1.70
2019-01-06T16:04:50.039Z,1.70
2019-01-06T16:07:22.772Z,1.70
2019-01-06T16:09:52.824Z,1.70
2019-01-06T16:12:22.873Z,1.70
2019-01-06T16:15:01.659Z,1.70
2019-01-06T16:17:34.375Z,1.70
2019-01-06T16:20:22.748Z,1.70
2019-01-06T16:22:58.588Z,1.70
2019-01-06T16:25:28.636Z,1.70
2019-01-06T16:28:10.731Z,1.80
2019-01-06T16:30:43.296Z,1.70
2019-01-06T16:33:15.226Z,1.70
2019-01-06T16:35:45.108Z,1.70
2019-01-06T16:38:30.233Z,1.70
2019-01-06T16:41:08.939Z,1.60
2019-01-06T16:43:47.792Z,1.60
2019-01-06T16:46:26.685Z,1.70
2019-01-06T16:49:05.567Z,1.70
2019-01-06T16:51:52.019Z,1.70
2019-01-06T16:54:30.904Z,1.70
2019-01-06T16:57:03.773Z,1.70
2019-01-06T16:59:51.913Z,1.60
2019-01-06T17:02:24.927Z,1.70
2019-01-06T17:04:57.676Z,1.70
2019-01-06T17:07:39.682Z,1.70
2019-01-06T17:10:25.837Z,1.70
2019-01-06T17:13:16.391Z,1.70
2019-01-06T17:15:55.064Z,1.70
2019-01-06T17:18:30.828Z,1.70
2019-01-06T17:21:09.901Z,1.70
2019-01-06T17:23:55.757Z,1.70
2019-01-06T17:26:34.891Z,1.70
2019-01-06T17:29:07.963Z,1.70
2019-01-06T17:31:52.840Z,1.70
2019-01-06T17:34:22.901Z,1.70
2019-01-06T17:36:58.747Z,1.80
2019-01-06T17:39:34.607Z,1.80
2019-01-06T17:42:19.558Z,1.80
2019-01-06T17:44:52.268Z,1.80
2019-01-06T17:47:38.381Z,1.80
2019-01-06T17:50:24.598Z,1.70
2019-01-06T17:53:10.988Z,1.80
2019-01-06T17:55:53.061Z,1.70
2019-01-06T17:58:31.899Z,1.70
2019-01-06T18:01:14.040Z,1.80
2019-01-06T18:03:44.103Z,1.80
2019-01-06T18:06:23.001Z,1.80
2019-01-06T18:08:59.099Z,1.80
2019-01-06T18:11:41.174Z,1.80
2019-01-06T18:14:11.211Z,1.80
2019-01-06T18:16:56.119Z,1.80
2019-01-06T18:19:26.175Z,1.80
2019-01-06T18:21:59.209Z,1.80
2019-01-06T18:24:44.382Z,1.80
2019-01-06T18:27:25.968Z,1.80
2019-01-06T18:30:11.712Z,1.80
2019-01-06T18:32:44.464Z,1.80
2019-01-06T18:35:30.625Z,1.80
2019-01-06T18:38:00.702Z,1.80
2019-01-06T18:40:33.520Z,1.80
2019-01-06T18:43:09.276Z,1.80
2019-01-06T18:45:50.789Z,1.80
2019-01-06T18:48:32.662Z,1.80
2019-01-06T18:51:02.729Z,1.90
2019-01-06T18:53:41.512Z,1.90
2019-01-06T18:56:14.594Z,1.90
2019-01-06T18:59:00.967Z,1.90
2019-01-06T19:01:47.152Z,1.90
2019-01-06T19:04:17.219Z,2.00
2019-01-06T19:06:52.708Z,2.00
2019-01-06T19:09:39.093Z,1.90
2019-01-06T19:12:18.260Z,1.90
2019-01-06T19:14:48.367Z,1.90
2019-01-06T19:17:24.115Z,2.00
2019-01-06T19:20:12.233Z,2.00
2019-01-06T19:22:42.288Z,1.90
2019-01-06T19:25:28.445Z,1.90
2019-01-06T19:28:14.533Z,1.80
2019-01-06T19:30:44.579Z,1.80
2019-01-06T19:33:23.772Z,1.80
2019-01-06T19:36:09.589Z,1.80
2019-01-06T19:38:45.408Z,1.80
2019-01-06T19:41:31.480Z,1.80
2019-01-06T19:44:13.216Z,1.80
2019-01-06T19:46:54.896Z,1.90
2019-01-06T19:49:30.614Z,1.90
2019-01-06T19:52:00.681Z,1.80
2019-01-06T19:54:46.999Z,1.80
2019-01-06T19:57:17.043Z,1.80
2019-01-06T20:00:01.705Z,1.80
2019-01-06T20:02:43.788Z,1.80
2019-01-06T20:05:29.667Z,1.70
2019-01-06T20:08:02.650Z,1.70
2019-01-06T20:10:48.500Z,1.70
2019-01-06T20:13:33.417Z,1.70
2019-01-06T20:16:03.474Z,1.60
2019-01-06T20:18:42.332Z,1.60
2019-01-06T20:21:12.380Z,1.60
2019-01-06T20:23:42.436Z,1.50
2019-01-06T20:26:12.473Z,1.50
2019-01-06T20:28:59.887Z,1.40
2019-01-06T20:31:45.923Z,1.50
2019-01-06T20:34:32.076Z,1.40
2019-01-06T20:37:11.184Z,1.40
2019-01-06T20:39:57.645Z,1.40
2019-01-06T20:42:33.688Z,1.40
2019-01-06T20:45:03.751Z,1.50
2019-01-06T20:47:45.547Z,1.40
2019-01-06T20:50:27.461Z,1.50
2019-01-06T20:52:57.517Z,1.50
2019-01-06T20:55:43.564Z,1.50
2019-01-06T20:58:25.301Z,1.50
2019-01-06T21:01:11.408Z,1.50
2019-01-06T21:03:57.535Z,1.40
2019-01-06T21:06:30.592Z,1.50
2019-01-06T21:09:00.649Z,1.50
2019-01-06T21:11:30.686Z,1.60
2019-01-06T21:14:06.532Z,1.60
2019-01-06T21:16:36.575Z,1.60
2019-01-06T21:19:06.632Z,1.60
2019-01-06T21:21:48.220Z,1.60
2019-01-06T21:24:26.978Z,1.60
2019-01-06T21:27:08.910Z,1.60
2019-01-06T21:29:38.963Z,1.60
2019-01-06T21:32:26.904Z,1.50
2019-01-06T21:34:59.452Z,1.50
2019-01-06T21:37:41.596Z,1.50
2019-01-06T21:40:27.661Z,1.40
2019-01-06T21:43:03.565Z,1.40
2019-01-06T21:45:33.625Z,1.50
2019-01-06T21:48:12.449Z,1.50
2019-01-06T21:50:45.444Z,1.50
2019-01-06T21:53:24.581Z,1.40
2019-01-06T21:56:03.404Z,1.50
2019-01-06T21:58:45.480Z,1.50
2019-01-06T22:01:33.750Z,1.40
2019-01-06T22:04:18.748Z,1.40
2019-01-06T22:06:48.980Z,1.40
2019-01-06T22:09:21.744Z,1.30
2019-01-06T22:11:57.860Z,1.40
2019-01-06T22:14:42.775Z,1.40
2019-01-06T22:17:28.818Z,1.40
2019-01-06T22:19:58.868Z,1.40
2019-01-06T22:22:45.229Z,1.40
2019-01-06T22:25:27.131Z,1.50
2019-01-06T22:27:57.179Z,1.50
2019-01-06T22:30:27.232Z,1.50
2019-01-06T22:33:03.308Z,1.50
2019-01-06T22:35:33.371Z,1.50
2019-01-06T22:38:21.208Z,1.40
2019-01-06T22:40:54.028Z,1.40
2019-01-06T22:43:30.036Z,1.40
2019-01-06T22:46:02.835Z,1.40
2019-01-06T22:48:33.014Z,1.40
2019-01-06T22:51:18.879Z,1.30
2019-01-06T22:54:04.974Z,1.30
2019-01-06T22:56:35.023Z,1.30
2019-01-06T22:59:20.882Z,1.30
2019-01-06T23:02:02.754Z,1.30
2019-01-06T23:04:41.526Z,1.30
2019-01-06T23:07:14.574Z,1.40
2019-01-06T23:09:50.399Z,1.40
2019-01-06T23:12:20.445Z,1.30
2019-01-06T23:15:06.483Z,1.40
2019-01-06T23:17:52.486Z,1.40
2019-01-06T23:20:28.300Z,1.40
2019-01-06T23:22:58.348Z,1.40
2019-01-06T23:25:40.247Z,1.40
2019-01-06T23:28:12.992Z,1.40
2019-01-06T23:30:49.080Z,1.40
2019-01-06T23:33:30.796Z,1.40
2019-01-06T23:36:06.831Z,1.40
2019-01-06T23:38:39.620Z,1.40
2019-01-06T23:41:25.836Z,1.40
2019-01-06T23:44:07.962Z,1.50
2019-01-06T23:46:54.396Z,1.50
2019-01-06T23:49:40.722Z,1.50
2019-01-06T23:52:22.524Z,1.50
2019-01-06T23:55:01.332Z,1.50
2019-01-06T23:57:37.461Z,1.50
